createdAt,value
2022-10-18T00:02:54.511Z,15.20
2022-10-18T00:08:01.552Z,15.16
2022-10-18T00:13:08.351Z,15.20
2022-10-18T00:18:14.875Z,15.17
2022-10-18T00:23:21.401Z,15.20
2022-10-18T00:28:28.115Z,15.20
2022-10-18T00:33:34.682Z,15.18
2022-10-18T00:38:41.476Z,15.18
2022-10-18T00:43:55.431Z,15.18
2022-10-18T00:49:03.432Z,15.17
2022-10-18T00:54:10.561Z,15.20
2022-10-18T00:59:17.964Z,15.18
2022-10-18T01:04:24.917Z,15.18
2022-10-18T01:09:34.064Z,15.18
2022-10-18T01:14:46.824Z,15.19
2022-10-18T01:20:09.861Z,15.20
2022-10-18T01:25:31.739Z,15.20
2022-10-18T01:30:53.530Z,15.19
2022-10-18T01:36:01.965Z,15.19
2022-10-18T01:41:13.294Z,15.18
2022-10-18T01:46:25.204Z,15.20
2022-10-18T01:51:32.565Z,15.18
2022-10-18T01:56:44.891Z,15.16
2022-10-18T02:01:56.811Z,15.20
2022-10-18T02:07:06.070Z,15.19
2022-10-18T02:12:14.055Z,15.18
2022-10-18T02:17:21.901Z,15.15
2022-10-18T02:22:31.653Z,15.19
2022-10-18T02:27:38.511Z,15.18
2022-10-18T02:32:48.965Z,15.17
2022-10-18T02:37:56.103Z,15.16
2022-10-18T02:43:02.871Z,15.18
2022-10-18T02:48:09.840Z,15.18
2022-10-18T02:53:16.514Z,15.17
2022-10-18T02:58:23.516Z,15.18
2022-10-18T03:03:30.236Z,15.19
2022-10-18T03:08:37.463Z,15.19
2022-10-18T03:13:44.161Z,15.16
2022-10-18T03:18:50.991Z,15.16
2022-10-18T03:23:59.101Z,15.17
2022-10-18T03:29:05.591Z,15.15
2022-10-18T03:34:12.081Z,15.16
2022-10-18T03:39:18.791Z,15.15
2022-10-18T03:44:25.494Z,15.17
2022-10-18T03:54:43.660Z,15.17
2022-10-18T03:59:50.471Z,15.16
2022-10-18T04:04:59.082Z,15.17
2022-10-18T04:10:05.974Z,15.17
2022-10-18T04:15:13.432Z,15.17
2022-10-18T04:20:20.391Z,15.14
2022-10-18T04:25:27.393Z,15.17
2022-10-18T04:30:33.861Z,15.16
2022-10-18T04:35:40.482Z,15.12
2022-10-18T04:40:47.081Z,15.17
2022-10-18T04:45:53.571Z,15.14
2022-10-18T04:51:00.352Z,15.13
2022-10-18T04:56:07.411Z,15.15
2022-10-18T05:01:14.287Z,15.15
2022-10-18T05:06:21.021Z,15.14
2022-10-18T05:11:27.841Z,15.13
2022-10-18T05:16:34.651Z,15.13
2022-10-18T05:21:41.394Z,15.16
2022-10-18T05:26:48.301Z,15.12
2022-10-18T05:31:54.931Z,15.15
2022-10-18T05:37:01.832Z,15.15
2022-10-18T05:42:09.152Z,15.15
2022-10-18T05:47:15.561Z,15.15
2022-10-18T05:52:22.110Z,15.16
2022-10-18T05:57:28.628Z,15.18
2022-10-18T06:02:35.438Z,15.17
2022-10-18T06:07:41.991Z,15.21
2022-10-18T06:12:48.593Z,15.22
2022-10-18T06:17:55.221Z,15.26
2022-10-18T06:23:02.123Z,15.25
2022-10-18T06:28:11.537Z,15.25
2022-10-18T06:33:19.127Z,15.26
2022-10-18T06:38:26.031Z,15.28
2022-10-18T06:43:32.434Z,15.27
2022-10-18T06:48:40.542Z,15.28
2022-10-18T06:53:59.323Z,15.27
2022-10-18T06:59:14.072Z,15.29
2022-10-18T07:04:20.562Z,15.30
2022-10-18T07:09:27.770Z,15.30
2022-10-18T07:14:34.341Z,15.30
2022-10-18T07:19:41.075Z,15.30
2022-10-18T07:24:48.005Z,15.32
2022-10-18T07:29:54.902Z,15.30
2022-10-18T07:35:02.781Z,15.31
2022-10-18T07:40:11.895Z,15.31
2022-10-18T07:45:18.457Z,15.32
2022-10-18T07:50:24.914Z,15.33
2022-10-18T07:55:31.911Z,15.32
2022-10-18T08:00:38.632Z,15.32
2022-10-18T08:05:45.538Z,15.33
2022-10-18T08:10:52.752Z,15.34
2022-10-18T08:16:02.863Z,15.34
2022-10-18T08:21:11.141Z,15.34
2022-10-18T08:26:18.934Z,15.34
2022-10-18T08:31:25.586Z,15.34
2022-10-18T08:36:32.430Z,15.34
2022-10-18T08:41:47.621Z,15.36
2022-10-18T08:46:55.030Z,15.38
2022-10-18T08:52:01.850Z,15.39
2022-10-18T08:57:15.452Z,15.40
2022-10-18T09:02:28.611Z,15.43
2022-10-18T09:07:53.091Z,15.45
2022-10-18T09:13:08.620Z,15.53
2022-10-18T09:18:22.202Z,15.61
2022-10-18T09:23:35.192Z,15.67
2022-10-18T09:28:46.485Z,15.76
2022-10-18T09:33:55.971Z,15.78
2022-10-18T09:39:04.862Z,15.84
2022-10-18T09:44:15.995Z,15.88
2022-10-18T09:49:25.333Z,15.90
2022-10-18T09:54:34.800Z,15.93
2022-10-18T09:59:42.317Z,15.94
2022-10-18T10:04:49.103Z,15.96
2022-10-18T10:09:59.950Z,16.04
2022-10-18T10:15:20.411Z,16.01
2022-10-18T10:20:29.920Z,15.98
2022-10-18T10:25:38.479Z,16.05
2022-10-18T10:30:45.310Z,16.05
2022-10-18T10:35:59.941Z,16.04
2022-10-18T10:41:06.791Z,16.04
2022-10-18T10:46:14.660Z,16.05
2022-10-18T10:51:30.965Z,16.01
2022-10-18T10:56:38.347Z,16.02
2022-10-18T11:01:45.670Z,16.03
2022-10-18T11:07:08.654Z,15.99
2022-10-18T11:12:22.820Z,16.00
2022-10-18T11:17:35.027Z,16.00
2022-10-18T11:22:43.814Z,15.98
2022-10-18T11:27:56.604Z,15.97
2022-10-18T11:33:08.471Z,15.96
2022-10-18T11:38:22.564Z,15.95
2022-10-18T11:44:00.491Z,15.94
2022-10-18T11:49:11.191Z,15.95
2022-10-18T11:54:26.047Z,15.94
2022-10-18T11:59:38.301Z,15.92
2022-10-18T12:04:58.555Z,15.91
2022-10-18T12:10:31.462Z,15.94
2022-10-18T12:15:47.709Z,15.92
2022-10-18T12:20:56.451Z,15.91
2022-10-18T12:26:04.287Z,15.89
2022-10-18T12:31:19.031Z,15.88
2022-10-18T12:36:35.031Z,15.87
2022-10-18T12:41:41.831Z,15.86
2022-10-18T12:46:50.121Z,15.85
2022-10-18T12:51:58.932Z,15.85
2022-10-18T12:57:07.338Z,15.81
2022-10-18T13:02:27.354Z,15.86
2022-10-18T13:07:43.641Z,15.84
2022-10-18T13:13:05.045Z,15.81
2022-10-18T13:18:22.543Z,15.82
2022-10-18T13:23:38.290Z,15.83
2022-10-18T13:28:52.220Z,15.83
2022-10-18T13:34:17.961Z,15.83
2022-10-18T13:39:24.761Z,15.83
2022-10-18T13:44:32.941Z,15.82
2022-10-18T13:49:44.095Z,15.80
2022-10-18T13:55:03.312Z,15.83
2022-10-18T14:00:23.611Z,15.83
2022-10-18T14:05:44.024Z,15.82
2022-10-18T14:11:02.444Z,15.84
2022-10-18T14:16:15.551Z,15.81
2022-10-18T14:21:31.148Z,15.78
2022-10-18T14:31:52.193Z,15.79
2022-10-18T14:36:58.733Z,15.81
2022-10-18T14:42:05.507Z,15.79
2022-10-18T14:47:16.481Z,15.78
2022-10-18T14:52:26.394Z,15.76
2022-10-18T14:57:35.372Z,15.79
2022-10-18T15:02:42.361Z,15.80
2022-10-18T15:07:49.185Z,15.80
2022-10-18T15:13:16.907Z,15.78
2022-10-18T15:18:25.307Z,15.80
2022-10-18T15:23:32.862Z,15.78
2022-10-18T15:28:50.136Z,15.78
2022-10-18T15:34:09.593Z,15.79
2022-10-18T15:39:18.221Z,15.80
2022-10-18T15:44:27.100Z,15.81
2022-10-18T15:49:59.274Z,15.76
2022-10-18T15:55:25.922Z,15.81
2022-10-18T16:00:32.715Z,15.83
2022-10-18T16:05:39.780Z,15.81
2022-10-18T16:10:46.461Z,15.80
2022-10-18T16:15:53.301Z,15.80
2022-10-18T16:21:00.084Z,15.78
2022-10-18T16:26:07.161Z,15.77
2022-10-18T16:31:16.808Z,15.77
2022-10-18T16:36:23.994Z,15.80
2022-10-18T16:41:30.763Z,15.78
2022-10-18T16:46:37.501Z,15.80
2022-10-18T16:51:44.010Z,15.80
2022-10-18T16:56:50.844Z,15.80
2022-10-18T17:01:57.885Z,15.78
2022-10-18T17:07:05.272Z,15.78
2022-10-18T17:12:12.431Z,15.80
2022-10-18T17:17:19.524Z,15.80
2022-10-18T17:22:26.085Z,15.80
2022-10-18T17:27:32.968Z,15.79
2022-10-18T17:32:39.974Z,15.79
2022-10-18T17:37:48.511Z,15.79
2022-10-18T17:42:55.663Z,15.78
2022-10-18T17:48:02.430Z,15.80
2022-10-18T17:53:09.021Z,15.79
2022-10-18T17:58:15.852Z,15.80
2022-10-18T18:03:22.875Z,15.81
2022-10-18T18:08:29.901Z,15.81
2022-10-18T18:13:36.571Z,15.80
2022-10-18T18:18:43.428Z,15.76
2022-10-18T18:23:50.592Z,15.82
2022-10-18T18:28:57.507Z,15.80
2022-10-18T18:34:04.159Z,15.81
2022-10-18T18:39:10.941Z,15.80
2022-10-18T18:44:17.445Z,15.80
2022-10-18T18:49:24.015Z,15.78
2022-10-18T18:54:32.045Z,15.81
2022-10-18T18:59:38.692Z,15.80
2022-10-18T19:04:45.395Z,15.81
2022-10-18T19:09:52.611Z,15.81
2022-10-18T19:14:59.237Z,15.81
2022-10-18T19:20:07.069Z,15.80
2022-10-18T19:25:14.001Z,15.82
2022-10-18T19:30:21.140Z,15.81
2022-10-18T19:35:27.575Z,15.80
2022-10-18T19:40:34.251Z,15.82
2022-10-18T19:45:40.855Z,15.79
2022-10-18T19:50:47.411Z,15.80
2022-10-18T19:55:58.883Z,15.81
2022-10-18T20:01:05.662Z,15.82
2022-10-18T20:06:12.577Z,15.80
2022-10-18T20:11:20.172Z,15.81
2022-10-18T20:16:28.633Z,15.79
2022-10-18T20:21:36.406Z,15.79
2022-10-18T20:26:44.119Z,15.80
2022-10-18T20:31:50.935Z,15.82
2022-10-18T20:36:57.775Z,15.82
2022-10-18T20:42:04.231Z,15.81
2022-10-18T20:47:10.922Z,15.80
2022-10-18T20:52:17.524Z,15.79
2022-10-18T20:57:24.252Z,15.80
2022-10-18T21:02:31.024Z,15.78
2022-10-18T21:07:37.487Z,15.80
2022-10-18T21:12:44.082Z,15.81
2022-10-18T21:17:53.361Z,15.82
2022-10-18T21:23:00.051Z,15.80
2022-10-18T21:28:07.011Z,15.81
2022-10-18T21:33:13.571Z,15.79
2022-10-18T21:38:20.095Z,15.81
2022-10-18T21:43:26.801Z,15.81
2022-10-18T21:48:33.371Z,15.81
2022-10-18T21:53:39.931Z,15.79
2022-10-18T21:58:46.884Z,15.80
2022-10-18T22:03:54.711Z,15.79
2022-10-18T22:09:02.267Z,15.82
2022-10-18T22:14:09.063Z,15.81
2022-10-18T22:19:15.680Z,15.82
2022-10-18T22:24:22.317Z,15.81
2022-10-18T22:29:29.250Z,15.80
2022-10-18T22:34:36.101Z,15.77
2022-10-18T22:39:42.862Z,15.80
2022-10-18T22:44:49.503Z,15.79
2022-10-18T22:49:56.203Z,15.80
2022-10-18T22:55:02.901Z,15.82
2022-10-18T23:00:10.670Z,15.80
2022-10-18T23:05:17.765Z,15.81
2022-10-18T23:10:24.381Z,15.81
2022-10-18T23:15:31.313Z,15.79
2022-10-18T23:20:37.843Z,15.80
2022-10-18T23:25:46.021Z,15.79
2022-10-18T23:30:53.222Z,15.79
2022-10-18T23:36:00.831Z,15.78
2022-10-18T23:41:08.322Z,15.78
2022-10-18T23:46:15.725Z,15.83
2022-10-18T23:51:22.482Z,15.79
2022-10-18T23:56:28.944Z,15.80
